sensor_id;sensor_type;location;lat;lon;timestamp;pressure;altitude;pressure_sealevel;temperature
73662;BMP280;61956;52.540;13.382;2023-03-24T00:01:06;96072.00;;;11.82
73662;BMP280;61956;52.540;13.382;2023-03-24T00:03:42;96817.28;;;11.84
73662;BMP280;61956;52.540;13.382;2023-03-24T00:06:13;96122.75;;;11.80
73662;BMP280;61956;52.540;13.382;2023-03-24T00:08:44;96807.66;;;11.85
73662;BMP280;61956;52.540;13.382;2023-03-24T00:11:16;97316.59;;;11.89
73662;BMP280;61956;52.540;13.382;2023-03-24T00:13:46;97789.75;;;11.94
73662;BMP280;61956;52.540;13.382;2023-03-24T00:16:15;97366.06;;;11.92
73662;BMP280;61956;52.540;13.382;2023-03-24T00:18:46;96357.88;;;11.84
73662;BMP280;61956;52.540;13.382;2023-03-24T00:21:18;96544.00;;;11.84
73662;BMP280;61956;52.540;13.382;2023-03-24T00:23:50;95955.16;;;11.79
73662;BMP280;61956;52.540;13.382;2023-03-24T00:26:23;96574.72;;;11.82
73662;BMP280;61956;52.540;13.382;2023-03-24T00:28:55;97067.66;;;11.87
73662;BMP280;61956;52.540;13.382;2023-03-24T00:31:24;97875.78;;;11.93
73662;BMP280;61956;52.540;13.382;2023-03-24T00:33:54;97979.34;;;11.94
73662;BMP280;61956;52.540;13.382;2023-03-24T00:36:25;97952.34;;;11.95
73662;BMP280;61956;52.540;13.382;2023-03-24T00:38:56;97436.19;;;11.92
73662;BMP280;61956;52.540;13.382;2023-03-24T00:41:29;96877.84;;;11.89
73662;BMP280;61956;52.540;13.382;2023-03-24T00:43:59;97017.28;;;11.88
73662;BMP280;61956;52.540;13.382;2023-03-24T00:46:31;98131.56;;;11.95
73662;BMP280;61956;52.540;13.382;2023-03-24T00:49:04;97709.25;;;11.94
73662;BMP280;61956;52.540;13.382;2023-03-24T00:51:38;97235.81;;;11.90
73662;BMP280;61956;52.540;13.382;2023-03-24T00:54:11;97318.88;;;11.90
73662;BMP280;61956;52.540;13.382;2023-03-24T00:56:43;97861.44;;;11.95
73662;BMP280;61956;52.540;13.382;2023-03-24T00:59:15;98034.38;;;11.96
73662;BMP280;61956;52.540;13.382;2023-03-24T01:01:46;98412.72;;;12.01
73662;BMP280;61956;52.540;13.382;2023-03-24T01:04:15;97874.91;;;11.97
73662;BMP280;61956;52.540;13.382;2023-03-24T01:06:45;97346.50;;;11.95
73662;BMP280;61956;52.540;13.382;2023-03-24T01:09:17;97072.22;;;11.90
73662;BMP280;61956;52.540;13.382;2023-03-24T01:11:50;97578.66;;;11.94
73662;BMP280;61956;52.540;13.382;2023-03-24T01:14:20;97885.56;;;11.96
73662;BMP280;61956;52.540;13.382;2023-03-24T01:16:49;98071.22;;;11.98
73662;BMP280;61956;52.540;13.382;2023-03-24T01:19:18;97933.06;;;11.96
73662;BMP280;61956;52.540;13.382;2023-03-24T01:21:50;98127.28;;;11.99
73662;BMP280;61956;52.540;13.382;2023-03-24T01:24:20;98397.63;;;12.03
73662;BMP280;61956;52.540;13.382;2023-03-24T01:26:53;98294.00;;;12.01
73662;BMP280;61956;52.540;13.382;2023-03-24T01:29:22;98404.34;;;12.04
73662;BMP280;61956;52.540;13.382;2023-03-24T01:31:52;97889.84;;;12.00
73662;BMP280;61956;52.540;13.382;2023-03-24T01:34:21;97838.97;;;11.99
73662;BMP280;61956;52.540;13.382;2023-03-24T01:36:51;98257.63;;;12.01
73662;BMP280;61956;52.540;13.382;2023-03-24T01:39:20;98081.28;;;12.00
73662;BMP280;61956;52.540;13.382;2023-03-24T01:41:49;97995.56;;;12.00
73662;BMP280;61956;52.540;13.382;2023-03-24T01:44:27;98077.94;;;11.99
73662;BMP280;61956;52.540;13.382;2023-03-24T01:46:59;98099.16;;;12.01
73662;BMP280;61956;52.540;13.382;2023-03-24T01:49:33;98018.19;;;11.99
73662;BMP280;61956;52.540;13.382;2023-03-24T01:52:08;97116.81;;;11.92
73662;BMP280;61956;52.540;13.382;2023-03-24T01:54:44;97101.97;;;11.93
73662;BMP280;61956;52.540;13.382;2023-03-24T01:57:21;96903.78;;;11.89
73662;BMP280;61956;52.540;13.382;2023-03-24T01:59:56;97454.38;;;11.92
73662;BMP280;61956;52.540;13.382;2023-03-24T02:02:51;97348.19;;;11.91
73662;BMP280;61956;52.540;13.382;2023-03-24T02:05:28;97563.44;;;11.92
73662;BMP280;61956;52.540;13.382;2023-03-24T02:08:05;97217.94;;;11.89
73662;BMP280;61956;52.540;13.382;2023-03-24T02:10:38;97641.63;;;11.91
73662;BMP280;61956;52.540;13.382;2023-03-24T02:13:11;97996.78;;;11.94
73662;BMP280;61956;52.540;13.382;2023-03-24T02:15:46;98091.81;;;11.95
73662;BMP280;61956;52.540;13.382;2023-03-24T02:18:34;98048.13;;;11.97
73662;BMP280;61956;52.540;13.382;2023-03-24T02:21:38;98001.69;;;11.95
73662;BMP280;61956;52.540;13.382;2023-03-24T02:24:52;98178.78;;;11.97
73662;BMP280;61956;52.540;13.382;2023-03-24T02:28:04;98788.41;;;12.02
73662;BMP280;61956;52.540;13.382;2023-03-24T02:34:32;99363.66;;;12.11
73662;BMP280;61956;52.540;13.382;2023-03-24T02:37:25;99655.03;;;12.15
73662;BMP280;61956;52.540;13.382;2023-03-24T02:40:25;99856.25;;;12.19
73662;BMP280;61956;52.540;13.382;2023-03-24T02:43:24;99891.63;;;12.20
73662;BMP280;61956;52.540;13.382;2023-03-24T02:46:09;100105.09;;;12.23
73662;BMP280;61956;52.540;13.382;2023-03-24T02:49:00;99920.47;;;12.23
73662;BMP280;61956;52.540;13.382;2023-03-24T02:51:39;100201.84;;;12.25
73662;BMP280;61956;52.540;13.382;2023-03-24T02:54:21;99375.81;;;12.21
73662;BMP280;61956;52.540;13.382;2023-03-24T02:57:04;98573.81;;;12.15
73662;BMP280;61956;52.540;13.382;2023-03-24T03:00:00;97613.91;;;12.03
73662;BMP280;61956;52.540;13.382;2023-03-24T03:02:57;97040.50;;;11.97
73662;BMP280;61956;52.540;13.382;2023-03-24T03:05:34;96685.84;;;11.92
73662;BMP280;61956;52.540;13.382;2023-03-24T03:08:08;96377.19;;;11.87
73662;BMP280;61956;52.540;13.382;2023-03-24T03:10:45;96905.63;;;11.88
73662;BMP280;61956;52.540;13.382;2023-03-24T03:13:23;97224.66;;;11.90
73662;BMP280;61956;52.540;13.382;2023-03-24T03:16:03;97637.94;;;11.92
73662;BMP280;61956;52.540;13.382;2023-03-24T03:18:40;97939.63;;;11.94
73662;BMP280;61956;52.540;13.382;2023-03-24T03:21:18;97967.16;;;11.95
73662;BMP280;61956;52.540;13.382;2023-03-24T03:23:55;97609.38;;;11.92
73662;BMP280;61956;52.540;13.382;2023-03-24T03:26:31;97483.22;;;11.91
73662;BMP280;61956;52.540;13.382;2023-03-24T03:29:10;97449.00;;;11.89
73662;BMP280;61956;52.540;13.382;2023-03-24T03:31:47;97842.34;;;11.91
73662;BMP280;61956;52.540;13.382;2023-03-24T03:34:28;97633.84;;;11.91
73662;BMP280;61956;52.540;13.382;2023-03-24T03:37:07;97600.38;;;11.89
73662;BMP280;61956;52.540;13.382;2023-03-24T03:39:50;97660.09;;;11.89
73662;BMP280;61956;52.540;13.382;2023-03-24T03:42:23;97454.50;;;11.87
73662;BMP280;61956;52.540;13.382;2023-03-24T03:44:55;97021.59;;;11.84
73662;BMP280;61956;52.540;13.382;2023-03-24T03:47:25;97180.28;;;11.82
73662;BMP280;61956;52.540;13.382;2023-03-24T03:49:55;97526.78;;;11.85
73662;BMP280;61956;52.540;13.382;2023-03-24T03:52:25;97527.84;;;11.84
73662;BMP280;61956;52.540;13.382;2023-03-24T03:54:55;97897.00;;;11.86
73662;BMP280;61956;52.540;13.382;2023-03-24T03:57:26;98126.50;;;11.90
73662;BMP280;61956;52.540;13.382;2023-03-24T04:00:19;97972.03;;;11.88
73662;BMP280;61956;52.540;13.382;2023-03-24T04:03:31;97698.56;;;11.87
73662;BMP280;61956;52.540;13.382;2023-03-24T04:06:24;98369.09;;;11.89
73662;BMP280;61956;52.540;13.382;2023-03-24T04:09:14;98022.13;;;11.88
73662;BMP280;61956;52.540;13.382;2023-03-24T04:12:26;98079.28;;;11.88
73662;BMP280;61956;52.540;13.382;2023-03-24T04:15:52;97857.75;;;11.88
73662;BMP280;61956;52.540;13.382;2023-03-24T04:18:52;98675.78;;;11.93
73662;BMP280;61956;52.540;13.382;2023-03-24T04:21:51;98555.56;;;11.92
73662;BMP280;61956;52.540;13.382;2023-03-24T04:24:41;98946.47;;;11.95
73662;BMP280;61956;52.540;13.382;2023-03-24T04:27:26;99721.34;;;12.02
73662;BMP280;61956;52.540;13.382;2023-03-24T04:30:09;99564.34;;;12.03
73662;BMP280;61956;52.540;13.382;2023-03-24T04:32:54;100899.72;;;12.14
73662;BMP280;61956;52.540;13.382;2023-03-24T04:35:32;101210.69;;;12.22
73662;BMP280;61956;52.540;13.382;2023-03-24T04:38:35;100530.53;;;12.19
73662;BMP280;61956;52.540;13.382;2023-03-24T04:41:29;100192.69;;;12.18
73662;BMP280;61956;52.540;13.382;2023-03-24T04:44:11;100272.25;;;12.19
73662;BMP280;61956;52.540;13.382;2023-03-24T04:47:04;100207.25;;;12.19
73662;BMP280;61956;52.540;13.382;2023-03-24T04:49:40;100198.44;;;12.20
73662;BMP280;61956;52.540;13.382;2023-03-24T04:52:09;101073.94;;;12.26
73662;BMP280;61956;52.540;13.382;2023-03-24T04:54:38;101078.69;;;12.29
73662;BMP280;61956;52.540;13.382;2023-03-24T04:57:08;100717.59;;;12.26
73662;BMP280;61956;52.540;13.382;2023-03-24T04:59:40;101203.91;;;12.32
73662;BMP280;61956;52.540;13.382;2023-03-24T05:02:12;100770.69;;;12.30
73662;BMP280;61956;52.540;13.382;2023-03-24T05:04:44;100771.50;;;12.30
73662;BMP280;61956;52.540;13.382;2023-03-24T05:07:20;101351.75;;;12.35
73662;BMP280;61956;52.540;13.382;2023-03-24T05:09:54;102023.13;;;12.42
73662;BMP280;61956;52.540;13.382;2023-03-24T05:12:24;102099.81;;;12.46
73662;BMP280;61956;52.540;13.382;2023-03-24T05:15:11;102238.16;;;12.50
73662;BMP280;61956;52.540;13.382;2023-03-24T05:17:41;102644.53;;;12.55
73662;BMP280;61956;52.540;13.382;2023-03-24T05:20:14;102158.66;;;12.54
73662;BMP280;61956;52.540;13.382;2023-03-24T05:22:48;101954.81;;;12.53
73662;BMP280;61956;52.540;13.382;2023-03-24T05:25:18;102323.84;;;12.58
73662;BMP280;61956;52.540;13.382;2023-03-24T05:27:48;102341.09;;;12.59
73662;BMP280;61956;52.540;13.382;2023-03-24T05:30:23;103092.81;;;12.67
73662;BMP280;61956;52.540;13.382;2023-03-24T05:32:59;102902.47;;;12.68
73662;BMP280;61956;52.540;13.382;2023-03-24T05:35:31;102585.53;;;12.69
73662;BMP280;61956;52.540;13.382;2023-03-24T05:38:01;103202.31;;;12.73
73662;BMP280;61956;52.540;13.382;2023-03-24T05:40:31;103258.25;;;12.77
73662;BMP280;61956;52.540;13.382;2023-03-24T05:43:11;103357.91;;;12.79
73662;BMP280;61956;52.540;13.382;2023-03-24T05:45:47;103524.16;;;12.84
73662;BMP280;61956;52.540;13.382;2023-03-24T05:48:26;103307.09;;;12.83
73662;BMP280;61956;52.540;13.382;2023-03-24T05:51:10;103010.03;;;12.83
73662;BMP280;61956;52.540;13.382;2023-03-24T05:53:40;103059.31;;;12.85
73662;BMP280;61956;52.540;13.382;2023-03-24T05:56:15;103177.22;;;12.87
73662;BMP280;61956;52.540;13.382;2023-03-24T05:59:04;103372.34;;;12.90
73662;BMP280;61956;52.540;13.382;2023-03-24T06:02:05;103399.81;;;12.93
73662;BMP280;61956;52.540;13.382;2023-03-24T06:05:00;103832.78;;;12.98
73662;BMP280;61956;52.540;13.382;2023-03-24T06:07:34;104039.22;;;13.01
73662;BMP280;61956;52.540;13.382;2023-03-24T06:10:06;103625.72;;;13.00
73662;BMP280;61956;52.540;13.382;2023-03-24T06:12:44;103795.81;;;13.02
73662;BMP280;61956;52.540;13.382;2023-03-24T06:15:13;103950.91;;;13.06
73662;BMP280;61956;52.540;13.382;2023-03-24T06:17:46;103547.00;;;13.05
73662;BMP280;61956;52.540;13.382;2023-03-24T06:20:24;103461.78;;;13.05
73662;BMP280;61956;52.540;13.382;2023-03-24T06:23:06;103446.13;;;13.05
73662;BMP280;61956;52.540;13.382;2023-03-24T06:26:08;104342.91;;;13.15
73662;BMP280;61956;52.540;13.382;2023-03-24T06:28:54;104741.38;;;13.21
73662;BMP280;61956;52.540;13.382;2023-03-24T06:31:26;105160.00;;;13.27
73662;BMP280;61956;52.540;13.382;2023-03-24T06:33:57;105389.13;;;13.33
73662;BMP280;61956;52.540;13.382;2023-03-24T06:36:26;104580.69;;;13.28
73662;BMP280;61956;52.540;13.382;2023-03-24T06:38:58;104062.72;;;13.26
73662;BMP280;61956;52.540;13.382;2023-03-24T06:41:27;104080.00;;;13.27
73662;BMP280;61956;52.540;13.382;2023-03-24T06:43:59;103931.50;;;13.25
73662;BMP280;61956;52.540;13.382;2023-03-24T06:46:28;103906.91;;;13.28
73662;BMP280;61956;52.540;13.382;2023-03-24T06:48:57;103718.47;;;13.26
73662;BMP280;61956;52.540;13.382;2023-03-24T06:51:27;104203.09;;;13.30
73662;BMP280;61956;52.540;13.382;2023-03-24T06:54:00;104560.84;;;13.36
73662;BMP280;61956;52.540;13.382;2023-03-24T06:56:29;104162.00;;;13.32
73662;BMP280;61956;52.540;13.382;2023-03-24T06:59:00;104265.25;;;13.35
73662;BMP280;61956;52.540;13.382;2023-03-24T07:01:32;104484.88;;;13.39
73662;BMP280;61956;52.540;13.382;2023-03-24T07:04:21;104997.53;;;13.44
73662;BMP280;61956;52.540;13.382;2023-03-24T07:06:54;105174.59;;;13.49
73662;BMP280;61956;52.540;13.382;2023-03-24T07:09:27;105307.47;;;13.52
73662;BMP280;61956;52.540;13.382;2023-03-24T07:11:57;105671.59;;;13.57
73662;BMP280;61956;52.540;13.382;2023-03-24T07:14:28;106471.63;;;13.69
73662;BMP280;61956;52.540;13.382;2023-03-24T07:16:59;107116.25;;;13.80
73662;BMP280;61956;52.540;13.382;2023-03-24T07:19:52;107270.00;;;13.88
73662;BMP280;61956;52.540;13.382;2023-03-24T07:22:44;108153.09;;;13.98
73662;BMP280;61956;52.540;13.382;2023-03-24T07:25:44;109333.81;;;14.21
73662;BMP280;61956;52.540;13.382;2023-03-24T07:28:19;108804.31;;;14.23
73662;BMP280;61956;52.540;13.382;2023-03-24T07:30:49;109125.03;;;14.32
73662;BMP280;61956;52.540;13.382;2023-03-24T07:33:19;111648.47;;;14.59
73662;BMP280;61956;52.540;13.382;2023-03-24T07:35:55;111566.53;;;14.78
73662;BMP280;61956;52.540;13.382;2023-03-24T07:38:25;109739.31;;;14.70
73662;BMP280;61956;52.540;13.382;2023-03-24T07:41:04;110407.19;;;14.82
73662;BMP280;61956;52.540;13.382;2023-03-24T07:43:36;109939.03;;;14.83
73662;BMP280;61956;52.540;13.382;2023-03-24T07:46:29;108993.41;;;14.81
73662;BMP280;61956;52.540;13.382;2023-03-24T07:49:01;108022.16;;;14.75
73662;BMP280;61956;52.540;13.382;2023-03-24T07:51:32;107324.44;;;14.70
73662;BMP280;61956;52.540;13.382;2023-03-24T07:54:13;106520.94;;;14.60
73662;BMP280;61956;52.540;13.382;2023-03-24T07:56:50;105198.66;;;14.48
73662;BMP280;61956;52.540;13.382;2023-03-24T07:59:19;104483.53;;;14.37
73662;BMP280;61956;52.540;13.382;2023-03-24T08:01:48;104466.53;;;14.33
73662;BMP280;61956;52.540;13.382;2023-03-24T08:04:25;103817.03;;;14.24
73662;BMP280;61956;52.540;13.382;2023-03-24T08:07:00;103159.97;;;14.15
73662;BMP280;61956;52.540;13.382;2023-03-24T08:09:30;103077.00;;;14.10
73662;BMP280;61956;52.540;13.382;2023-03-24T08:12:01;103286.06;;;14.08
73662;BMP280;61956;52.540;13.382;2023-03-24T08:14:31;103459.41;;;14.07
73662;BMP280;61956;52.540;13.382;2023-03-24T08:17:00;103349.13;;;14.05
73662;BMP280;61956;52.540;13.382;2023-03-24T08:19:30;103070.13;;;14.02
73662;BMP280;61956;52.540;13.382;2023-03-24T08:21:59;103063.50;;;14.00
73662;BMP280;61956;52.540;13.382;2023-03-24T08:24:28;102780.38;;;13.96
73662;BMP280;61956;52.540;13.382;2023-03-24T08:26:58;102867.72;;;13.93
73662;BMP280;61956;52.540;13.382;2023-03-24T08:29:31;102818.31;;;13.92
73662;BMP280;61956;52.540;13.382;2023-03-24T08:32:01;102662.16;;;13.89
73662;BMP280;61956;52.540;13.382;2023-03-24T08:34:31;103104.63;;;13.91
73662;BMP280;61956;52.540;13.382;2023-03-24T08:37:00;103250.41;;;13.94
73662;BMP280;61956;52.540;13.382;2023-03-24T08:39:29;103567.88;;;13.95
73662;BMP280;61956;52.540;13.382;2023-03-24T08:42:03;103329.72;;;13.93
73662;BMP280;61956;52.540;13.382;2023-03-24T08:44:33;103159.44;;;13.91
73662;BMP280;61956;52.540;13.382;2023-03-24T08:47:02;103334.94;;;13.93
73662;BMP280;61956;52.540;13.382;2023-03-24T08:49:32;104004.53;;;13.97
73662;BMP280;61956;52.540;13.382;2023-03-24T08:52:01;104834.13;;;14.06
73662;BMP280;61956;52.540;13.382;2023-03-24T08:54:33;105303.81;;;14.13
73662;BMP280;61956;52.540;13.382;2023-03-24T08:57:06;105716.88;;;14.21
73662;BMP280;61956;52.540;13.382;2023-03-24T08:59:35;105716.63;;;14.24
73662;BMP280;61956;52.540;13.382;2023-03-24T09:02:04;105858.50;;;14.26
73662;BMP280;61956;52.540;13.382;2023-03-24T09:04:33;106004.50;;;14.30
73662;BMP280;61956;52.540;13.382;2023-03-24T09:07:05;106180.25;;;14.34
73662;BMP280;61956;52.540;13.382;2023-03-24T09:09:34;106328.94;;;14.39
73662;BMP280;61956;52.540;13.382;2023-03-24T09:12:07;106441.16;;;14.42
73662;BMP280;61956;52.540;13.382;2023-03-24T09:14:36;106399.09;;;14.45
73662;BMP280;61956;52.540;13.382;2023-03-24T09:17:05;105821.44;;;14.42
73662;BMP280;61956;52.540;13.382;2023-03-24T09:19:34;106168.97;;;14.45
73662;BMP280;61956;52.540;13.382;2023-03-24T09:22:04;106989.72;;;14.52
73662;BMP280;61956;52.540;13.382;2023-03-24T09:24:33;107389.59;;;14.60
73662;BMP280;61956;52.540;13.382;2023-03-24T09:27:02;108113.09;;;14.72
73662;BMP280;61956;52.540;13.382;2023-03-24T09:29:35;108881.56;;;14.83
73662;BMP280;61956;52.540;13.382;2023-03-24T09:32:04;108856.94;;;14.89
73662;BMP280;61956;52.540;13.382;2023-03-24T09:34:33;109032.19;;;14.97
73662;BMP280;61956;52.540;13.382;2023-03-24T09:37:03;109334.91;;;15.07
73662;BMP280;61956;52.540;13.382;2023-03-24T09:39:34;109519.94;;;15.13
73662;BMP280;61956;52.540;13.382;2023-03-24T09:42:04;111681.44;;;15.39
73662;BMP280;61956;52.540;13.382;2023-03-24T09:44:39;112930.50;;;15.65
73662;BMP280;61956;52.540;13.382;2023-03-24T09:47:18;114161.06;;;15.92
73662;BMP280;61956;52.540;13.382;2023-03-24T09:49:57;112809.50;;;15.95
73662;BMP280;61956;52.540;13.382;2023-03-24T09:52:33;113243.50;;;16.10
73662;BMP280;61956;52.540;13.382;2023-03-24T09:55:12;110858.88;;;15.98
73662;BMP280;61956;52.540;13.382;2023-03-24T09:57:48;110569.25;;;15.95
73662;BMP280;61956;52.540;13.382;2023-03-24T10:00:24;111192.38;;;16.04
73662;BMP280;61956;52.540;13.382;2023-03-24T10:02:58;111567.06;;;16.15
73662;BMP280;61956;52.540;13.382;2023-03-24T10:05:33;109340.72;;;15.99
73662;BMP280;61956;52.540;13.382;2023-03-24T10:08:13;110187.53;;;16.03
73662;BMP280;61956;52.540;13.382;2023-03-24T10:10:56;110897.19;;;16.16
73662;BMP280;61956;52.540;13.382;2023-03-24T10:13:38;111023.22;;;16.22
73662;BMP280;61956;52.540;13.382;2023-03-24T10:16:21;109084.03;;;16.09
73662;BMP280;61956;52.540;13.382;2023-03-24T10:19:03;110312.38;;;16.18
73662;BMP280;61956;52.540;13.382;2023-03-24T10:21:51;112121.69;;;16.44
73662;BMP280;61956;52.540;13.382;2023-03-24T10:24:35;111893.91;;;16.52
73662;BMP280;61956;52.540;13.382;2023-03-24T10:27:15;110591.19;;;16.48
73662;BMP280;61956;52.540;13.382;2023-03-24T10:29:53;110207.63;;;16.46
73662;BMP280;61956;52.540;13.382;2023-03-24T10:32:34;110464.16;;;16.49
73662;BMP280;61956;52.540;13.382;2023-03-24T10:35:06;111269.97;;;16.59
73662;BMP280;61956;52.540;13.382;2023-03-24T10:37:45;113114.75;;;16.85
73662;BMP280;61956;52.540;13.382;2023-03-24T10:40:18;113330.03;;;17.02
73662;BMP280;61956;52.540;13.382;2023-03-24T10:42:48;113185.53;;;17.14
73662;BMP280;61956;52.540;13.382;2023-03-24T10:45:24;113983.91;;;17.31
73662;BMP280;61956;52.540;13.382;2023-03-24T10:48:01;111389.66;;;17.18
73662;BMP280;61956;52.540;13.382;2023-03-24T10:50:32;109747.16;;;16.97
73662;BMP280;61956;52.540;13.382;2023-03-24T10:53:07;109101.03;;;16.85
73662;BMP280;61956;52.540;13.382;2023-03-24T10:55:44;109037.22;;;16.81
73662;BMP280;61956;52.540;13.382;2023-03-24T10:58:27;109635.38;;;16.85
73662;BMP280;61956;52.540;13.382;2023-03-24T11:00:58;109753.56;;;16.89
73662;BMP280;61956;52.540;13.382;2023-03-24T11:03:31;110123.25;;;16.93
73662;BMP280;61956;52.540;13.382;2023-03-24T11:06:05;110920.69;;;17.04
73662;BMP280;61956;52.540;13.382;2023-03-24T11:08:37;110364.03;;;17.01
73662;BMP280;61956;52.540;13.382;2023-03-24T11:11:13;109584.19;;;16.96
73662;BMP280;61956;52.540;13.382;2023-03-24T11:13:58;109404.69;;;16.94
73662;BMP280;61956;52.540;13.382;2023-03-24T11:16:31;109593.88;;;16.95
73662;BMP280;61956;52.540;13.382;2023-03-24T11:19:17;110574.38;;;17.04
73662;BMP280;61956;52.540;13.382;2023-03-24T11:21:50;110978.34;;;17.16
73662;BMP280;61956;52.540;13.382;2023-03-24T11:24:26;112425.88;;;17.36
73662;BMP280;61956;52.540;13.382;2023-03-24T11:26:58;113396.38;;;17.59
73662;BMP280;61956;52.540;13.382;2023-03-24T11:29:31;112725.47;;;17.63
73662;BMP280;61956;52.540;13.382;2023-03-24T11:32:10;111549.97;;;17.56
73662;BMP280;61956;52.540;13.382;2023-03-24T11:34:49;110241.97;;;17.44
73662;BMP280;61956;52.540;13.382;2023-03-24T11:37:25;111344.59;;;17.53
73662;BMP280;61956;52.540;13.382;2023-03-24T11:40:15;112427.88;;;17.72
73662;BMP280;61956;52.540;13.382;2023-03-24T11:42:48;110077.56;;;17.56
73662;BMP280;61956;52.540;13.382;2023-03-24T11:45:24;110782.03;;;17.58
73662;BMP280;61956;52.540;13.382;2023-03-24T11:47:57;112071.38;;;17.75
73662;BMP280;61956;52.540;13.382;2023-03-24T11:50:32;113164.28;;;17.96
73662;BMP280;61956;52.540;13.382;2023-03-24T11:53:10;111687.59;;;17.89
73662;BMP280;61956;52.540;13.382;2023-03-24T11:55:50;110372.75;;;17.75
73662;BMP280;61956;52.540;13.382;2023-03-24T11:58:29;111166.13;;;17.80
73662;BMP280;61956;52.540;13.382;2023-03-24T12:01:08;110699.13;;;17.79
73662;BMP280;61956;52.540;13.382;2023-03-24T12:03:54;110051.59;;;17.73
73662;BMP280;61956;52.540;13.382;2023-03-24T12:06:48;109798.19;;;17.68
73662;BMP280;61956;52.540;13.382;2023-03-24T12:09:35;110348.94;;;17.78
73662;BMP280;61956;52.540;13.382;2023-03-24T12:12:25;109648.16;;;17.70
73662;BMP280;61956;52.540;13.382;2023-03-24T12:15:29;110508.69;;;17.79
73662;BMP280;61956;52.540;13.382;2023-03-24T12:18:16;110613.91;;;17.83
73662;BMP280;61956;52.540;13.382;2023-03-24T12:20:58;109463.59;;;17.77
73662;BMP280;61956;52.540;13.382;2023-03-24T12:23:45;107844.31;;;17.53
73662;BMP280;61956;52.540;13.382;2023-03-24T12:26:24;107307.03;;;17.41
73662;BMP280;61956;52.540;13.382;2023-03-24T12:32:23;106994.03;;;17.22
73662;BMP280;61956;52.540;13.382;2023-03-24T12:35:29;106906.66;;;17.20
73662;BMP280;61956;52.540;13.382;2023-03-24T12:38:25;106985.69;;;17.17
73662;BMP280;61956;52.540;13.382;2023-03-24T12:44:58;105969.44;;;17.04
73662;BMP280;61956;52.540;13.382;2023-03-24T12:48:02;106056.53;;;16.99
73662;BMP280;61956;52.540;13.382;2023-03-24T12:50:57;105239.69;;;16.86
73662;BMP280;61956;52.540;13.382;2023-03-24T12:53:48;105637.78;;;16.85
73662;BMP280;61956;52.540;13.382;2023-03-24T12:56:33;104796.75;;;16.73
73662;BMP280;61956;52.540;13.382;2023-03-24T12:59:09;104302.22;;;16.63
73662;BMP280;61956;52.540;13.382;2023-03-24T13:01:49;104414.53;;;16.59
73662;BMP280;61956;52.540;13.382;2023-03-24T13:04:24;104331.16;;;16.54
73662;BMP280;61956;52.540;13.382;2023-03-24T13:07:00;104514.88;;;16.53
73662;BMP280;61956;52.540;13.382;2023-03-24T13:09:42;104358.09;;;16.48
73662;BMP280;61956;52.540;13.382;2023-03-24T13:12:20;103873.03;;;16.42
73662;BMP280;61956;52.540;13.382;2023-03-24T13:14:56;103935.47;;;16.38
73662;BMP280;61956;52.540;13.382;2023-03-24T13:17:38;104213.31;;;16.38
73662;BMP280;61956;52.540;13.382;2023-03-24T13:20:22;104216.16;;;16.37
73662;BMP280;61956;52.540;13.382;2023-03-24T13:22:54;104108.03;;;16.34
73662;BMP280;61956;52.540;13.382;2023-03-24T13:25:31;103700.94;;;16.27
73662;BMP280;61956;52.540;13.382;2023-03-24T13:28:12;104401.16;;;16.31
73662;BMP280;61956;52.540;13.382;2023-03-24T13:30:49;104041.81;;;16.26
73662;BMP280;61956;52.540;13.382;2023-03-24T13:33:24;104176.47;;;16.25
73662;BMP280;61956;52.540;13.382;2023-03-24T13:36:10;104181.06;;;16.23
73662;BMP280;61956;52.540;13.382;2023-03-24T13:38:54;104565.84;;;16.27
73662;BMP280;61956;52.540;13.382;2023-03-24T13:41:26;103793.78;;;16.18
73662;BMP280;61956;52.540;13.382;2023-03-24T13:44:06;102789.75;;;16.04
73662;BMP280;61956;52.540;13.382;2023-03-24T13:46:43;102375.72;;;15.94
73662;BMP280;61956;52.540;13.382;2023-03-24T13:49:33;102091.78;;;15.85
73662;BMP280;61956;52.540;13.382;2023-03-24T13:52:04;101653.56;;;15.76
73662;BMP280;61956;52.540;13.382;2023-03-24T13:54:48;101934.00;;;15.73
73662;BMP280;61956;52.540;13.382;2023-03-24T13:57:22;101936.25;;;15.69
73662;BMP280;61956;52.540;13.382;2023-03-24T14:00:06;101604.19;;;15.63
73662;BMP280;61956;52.540;13.382;2023-03-24T14:02:48;101334.94;;;15.56
73662;BMP280;61956;52.540;13.382;2023-03-24T14:05:40;100596.72;;;15.45
73662;BMP280;61956;52.540;13.382;2023-03-24T14:08:39;99018.16;;;15.23
73662;BMP280;61956;52.540;13.382;2023-03-24T14:11:41;98966.50;;;15.11
73662;BMP280;61956;52.540;13.382;2023-03-24T14:14:26;99328.28;;;15.09
73662;BMP280;61956;52.540;13.382;2023-03-24T14:17:10;97012.97;;;14.80
73662;BMP280;61956;52.540;13.382;2023-03-24T14:19:42;98789.97;;;14.84
73662;BMP280;61956;52.540;13.382;2023-03-24T14:22:20;99898.84;;;14.92
73662;BMP280;61956;52.540;13.382;2023-03-24T14:24:56;100382.25;;;14.96
73662;BMP280;61956;52.540;13.382;2023-03-24T14:27:32;100417.25;;;14.95
73662;BMP280;61956;52.540;13.382;2023-03-24T14:30:17;98912.47;;;14.80
73662;BMP280;61956;52.540;13.382;2023-03-24T14:32:51;99663.50;;;14.80
73662;BMP280;61956;52.540;13.382;2023-03-24T14:35:26;100937.84;;;14.90
73662;BMP280;61956;52.540;13.382;2023-03-24T14:38:05;103125.63;;;15.14
73662;BMP280;61956;52.540;13.382;2023-03-24T14:40:55;103791.13;;;15.26
73662;BMP280;61956;52.540;13.382;2023-03-24T14:43:27;103706.81;;;15.30
73662;BMP280;61956;52.540;13.382;2023-03-24T14:45:59;103605.63;;;15.31
73662;BMP280;61956;52.540;13.382;2023-03-24T14:48:38;103433.75;;;15.31
73662;BMP280;61956;52.540;13.382;2023-03-24T14:51:31;104467.81;;;15.43
73662;BMP280;61956;52.540;13.382;2023-03-24T14:54:13;104447.34;;;15.47
73662;BMP280;61956;52.540;13.382;2023-03-24T14:56:48;107157.03;;;15.75
73662;BMP280;61956;52.540;13.382;2023-03-24T14:59:30;107528.22;;;15.92